Sagar Kanya — VTJR — position and weather

sailwx.info

Track history (hours):
 
Tides and Currents Weather Stations Pressure Air Temp Water Temp Dewpoint Dewpoint Depression Visibility Wind Speed Wind Dir Waves Ship Positions

Oceanographic research ship Sagar Kanya (India)

Detailed information on ship capabilities available from University of Delaware's Ocean Information Center.

Last reported at 2017-Oct-10 15:10 UTC. Time now 2017-Oct-19 16:36 UTC.
Position N 13°06' E 080°18'.
Warning: this ship's position is 9 days out of date.

Type: Other ship. MMSI: 419320000.

Wind from 360 at 6 knots

Barometer 1006.3 mb
Air temperature 29.6 ° C

Date/timePositionNaut miles runAvg speedWind from/ knotsBaromVisibWave heightAir tempDewpointWater temp
2017-Oct-10 15:10N 13°06' E 080°18'0 0.0 360 / 61006.3 29.6
2017-Oct-10 12:10N 13°06' E 080°18'0 0.0 360 / 61003.8 30.1
2017-Oct-10 06:10N 13°06' E 080°18'   020 / 61006.9 30.9
2017-Oct-06 18:10N 10°54' E 081°48'13 4.5 140 / 81008.2 28.8
2017-Oct-06 15:10N 10°42' E 081°54'22 7.2 160 / 81008.0 28.6
2017-Oct-06 12:10N 10°24' E 082°06'17 5.6 190 / 121005.1 28.5
2017-Oct-06 09:10N 10°12' E 082°18'19 6.3 180 / 161006.1 28.8
2017-Oct-06 06:10N 09°54' E 082°24'17 5.6 180 / 171008.3 28.9
2017-Oct-06 03:10N 09°42' E 082°36'22 7.2 180 / 191008.9 29.0
2017-Oct-06 00:10N 09°24' E 082°48'22 7.2 190 / 191006.8 28.4
2017-Oct-05 21:10N 09°06' E 083°00'13 4.5 180 / 171006.6 28.5
2017-Oct-05 18:10N 08°54' E 083°06'22 7.2 150 / 121008.0 28.9
2017-Oct-05 15:10N 08°36' E 083°18'22 7.2 150 / 171008.5 29.1
2017-Oct-05 12:10N 08°18' E 083°30'22 7.2 180 / 41006.1 29.7
2017-Oct-05 09:10N 08°00' E 083°42'13 4.5 170 / 101006.1 30.1
2017-Oct-05 06:10N 07°48' E 083°48'73 8.0 170 / 161008.2 29.1
2017-Oct-04 21:00N 06°48' E 084°30'13 4.7 180 / 231006.8 28.0
2017-Oct-04 18:10N 06°36' E 084°36'22 7.2 180 / 211008.8 28.2
2017-Oct-04 15:10N 06°18' E 084°48'38 6.4 180 / 211009.6 28.5
2017-Oct-04 09:10N 05°48' E 085°12'76 6.4 200 / 211006.8 28.7
2017-Oct-03 21:10N 04°54' E 086°06'51 5.6 190 / 211008.1 28.0
2017-Oct-03 12:10N 04°18' E 086°42'153 6.4 180 / 211008.1 28.5
2017-Oct-02 12:10N 02°30' E 088°30'25 8.5 180 / 191009.0 28.7
2017-Oct-02 09:10N 02°12' E 088°48'17 5.7 180 / 161008.5 29.0
2017-Oct-02 06:10N 02°00' E 089°00'17 5.7 200 / 161010.9 28.6
2017-Oct-02 03:10N 01°48' E 089°12'17 5.7 190 / 141012.5 28.7
2017-Oct-02 00:10N 01°36' E 089°24'22 7.2 190 / 161011.1 28.2
2017-Oct-01 21:10N 01°18' E 089°36'22 7.2 190 / 171010.2 28.2
2017-Oct-01 18:10N 01°06' E 089°54'0 0.0 190 / 141011.8 28.0
2017-Oct-01 15:10N 01°06' E 089°54'6 2.0 240 / 81012.5 28.7
2017-Oct-01 12:10N 01°06' E 089°48'6 2.0 240 / 61010.6 28.7
2017-Oct-01 09:10N 01°12' E 089°48'0 0.0 260 / 41009.7 29.6
2017-Oct-01 06:10N 01°12' E 089°48'0 0.0 240 / 61011.3 29.2
2017-Oct-01 03:10N 01°12' E 089°48'0 0.0 230 / 81012.9 28.7
2017-Oct-01 00:10N 01°12' E 089°48'0 0.0 230 / 81011.5 28.3
2017-Sep-30 18:10N 01°12' E 089°48'18 6.0 220 / 81012.3 28.4
2017-Sep-30 15:10N 01°12' E 089°30'   290 / 61013.5 28.4
Track history (hours):
 
Tides and Currents Weather Stations Pressure Air Temp Water Temp Dewpoint Dewpoint Depression Visibility Wind Speed Wind Dir Waves Ship Positions

Oceanographic research ship Sagar Kanya (India)

Detailed information on ship capabilities available from University of Delaware's Ocean Information Center.

Last reported at 2017-Oct-10 15:10 UTC. Time now 2017-Oct-19 16:36 UTC.
Position N 13°06' E 080°18'.
Warning: this ship's position is 9 days out of date.

Type: Other ship. MMSI: 419320000.

Wind from 360 at 6 knots

Barometer 1006.3 mb
Air temperature 29.6 ° C

Date/timePositionNaut miles runAvg speedWind from/ knotsBaromVisibWave heightAir tempDewpointWater temp
2017-Oct-10 15:10N 13°06' E 080°18'0 0.0 360 / 61006.3 29.6
2017-Oct-10 12:10N 13°06' E 080°18'0 0.0 360 / 61003.8 30.1
2017-Oct-10 06:10N 13°06' E 080°18'   020 / 61006.9 30.9
2017-Oct-06 18:10N 10°54' E 081°48'13 4.5 140 / 81008.2 28.8
2017-Oct-06 15:10N 10°42' E 081°54'22 7.2 160 / 81008.0 28.6
2017-Oct-06 12:10N 10°24' E 082°06'17 5.6 190 / 121005.1 28.5
2017-Oct-06 09:10N 10°12' E 082°18'19 6.3 180 / 161006.1 28.8
2017-Oct-06 06:10N 09°54' E 082°24'17 5.6 180 / 171008.3 28.9
2017-Oct-06 03:10N 09°42' E 082°36'22 7.2 180 / 191008.9 29.0
2017-Oct-06 00:10N 09°24' E 082°48'22 7.2 190 / 191006.8 28.4
2017-Oct-05 21:10N 09°06' E 083°00'13 4.5 180 / 171006.6 28.5
2017-Oct-05 18:10N 08°54' E 083°06'22 7.2 150 / 121008.0 28.9
2017-Oct-05 15:10N 08°36' E 083°18'22 7.2 150 / 171008.5 29.1
2017-Oct-05 12:10N 08°18' E 083°30'22 7.2 180 / 41006.1 29.7
2017-Oct-05 09:10N 08°00' E 083°42'13 4.5 170 / 101006.1 30.1
2017-Oct-05 06:10N 07°48' E 083°48'73 8.0 170 / 161008.2 29.1
2017-Oct-04 21:00N 06°48' E 084°30'13 4.7 180 / 231006.8 28.0
2017-Oct-04 18:10N 06°36' E 084°36'22 7.2 180 / 211008.8 28.2
2017-Oct-04 15:10N 06°18' E 084°48'38 6.4 180 / 211009.6 28.5
2017-Oct-04 09:10N 05°48' E 085°12'76 6.4 200 / 211006.8 28.7
2017-Oct-03 21:10N 04°54' E 086°06'51 5.6 190 / 211008.1 28.0
2017-Oct-03 12:10N 04°18' E 086°42'153 6.4 180 / 211008.1 28.5
2017-Oct-02 12:10N 02°30' E 088°30'25 8.5 180 / 191009.0 28.7
2017-Oct-02 09:10N 02°12' E 088°48'17 5.7 180 / 161008.5 29.0
2017-Oct-02 06:10N 02°00' E 089°00'17 5.7 200 / 161010.9 28.6
2017-Oct-02 03:10N 01°48' E 089°12'17 5.7 190 / 141012.5 28.7
2017-Oct-02 00:10N 01°36' E 089°24'22 7.2 190 / 161011.1 28.2
2017-Oct-01 21:10N 01°18' E 089°36'22 7.2 190 / 171010.2 28.2
2017-Oct-01 18:10N 01°06' E 089°54'0 0.0 190 / 141011.8 28.0
2017-Oct-01 15:10N 01°06' E 089°54'6 2.0 240 / 81012.5 28.7
2017-Oct-01 12:10N 01°06' E 089°48'6 2.0 240 / 61010.6 28.7
2017-Oct-01 09:10N 01°12' E 089°48'0 0.0 260 / 41009.7 29.6
2017-Oct-01 06:10N 01°12' E 089°48'0 0.0 240 / 61011.3 29.2
2017-Oct-01 03:10N 01°12' E 089°48'0 0.0 230 / 81012.9 28.7
2017-Oct-01 00:10N 01°12' E 089°48'0 0.0 230 / 81011.5 28.3
2017-Sep-30 18:10N 01°12' E 089°48'18 6.0 220 / 81012.3 28.4
2017-Sep-30 15:10N 01°12' E 089°30'   290 / 61013.5 28.4

Dump ship's entire track history